Terminal Aerodrome Forecast
Issued by NWS Springfield, MO

Home | Current Version | Previous Version | Text Only | Print | Product List | Glossary On
Versions: 1 2 3 4 5 6 7 8 9 10 11 12 13 14 15 16 17 18 19 20 21 22 23 24 25 26
029
FTUS43 KSGF 241120
TAFSGF
TAF
KSGF 241120Z 2412/2512 16006KT P6SM SKC
     FM241300 20007KT P6SM FEW250
     FM241500 23007KT P6SM FEW250
     FM241800 26007KT P6SM VCTS SCT025CB BKN150 PROB30 2501/2505 4SM
      -TSRA OVC040CB=

USA.gov is the U.S. government's official web portal to all federal, state and local government web resources and services.